Portada
METAR-TAF:

METAR-TAF

Aeroports :

Aeroport Internacional de Tòquio

Tòquio Haneda, Japó

latitud: 35-33N, longitud: 139-47E, altitud: 5 m

Observació

L'informe es va fer fa 21 minuts, a les 08:30 UTC
Vent 11 kt del Nord/Nord-Oest
Temperatura 18°C
Humitat 37%
Pressió 1016 hPa
Visibilitat 10 km o més
Escasses núvols a una alçada de 3000 ft

METAR: RJTT 120830Z 33011KT 9999 FEW030 18/03 Q1016 NOSIG RMK 1CU030 A3001

Hora: 17:51 (08:51 UTC)

Pronòstic

L'informe es va fer fa 3 hores i 46 minuts, a les 05:05 UTC
Pronòstic vàlid del 12 a les 06 UTC al 13 a les 12 UTC
Vent 18 kt del Nord
Visibilitat 10 km o més
Escasses núvols a una alçada de 3000 ft
Evolucionant progressivament
l' 12 a les 18 UTC al 12 a les 21 UTC
Vent 8 kt del Nord-Est
Evolucionant progressivament
l' 13 a les 09 UTC al 13 a les 12 UTC
Vent 8 kt del Sud/Sud-Oest

TAF: RJTT 120505Z 1206/1312 36018KT 9999 FEW030 BECMG 1218/1221 04008KT BECMG 1309/1312 20008KT

Observacions i pronòstics meteorològics de més de 4000 aeroports (METAR i TAF).

Les estacions disponibles són els punts grocs i vermells al mapa.

Posi el ratolí al punt desitjat per veure el nom de l'estació.

Feu clic per veure les observacions i els pronòstics meteorològics.

Per canviar el mapa: feu clic els botons verds amb una creu de color negre per apropar; al botó verd amb un guió per allunyar la imatge; o en les fletxes verdes per a mapes adjacents.


METAR-TAF: